Fieldale, Virginia
Current Conditions -  °F | °C
As of 10:35 PM on Saturday 24 Jan 2015 (Local Time) from KMTV Reporting Station
Overcast Overcast  
Wind Chill: 34°   Ceiling: 4300
Heat Index: 37°   Visibility: 10mi
Dew Point: 26°   Wind: 5mph
Humidity: 64%   Direction: 270°W
Pressure: 29.8"   Gusts: NA
Location:  36.7°N, 79.94°W
Report Text: KMTV 250335Z AUTO 27004KT 10SM OVC043 03/M03 A2980 RMK AO2 T00301032
Loading
Personal Weather Stations






























Interactive Weather Map New forecast layout! Learn more

10-Day Weather Forecast

Advertisements
Track Severe Weather on mobile